Time;durP1;ratioP1;P1;durP2;ratioP2;P2;SDS_P1;SDS_P2;PMS_P1;PMS_P2;Temp;Humidity;BMP_temperature;BMP_pressure;BME280_temperature;BME280_humidity;BME280_pressure;Samples;Min_cycle;Max_cycle;Signal;HPM_P1;HPM_P2
2022/09/05 00:01:03;;;;;;;7.00;4.03;;;;;;;14.60;48.77;100523.02;1712507;82;21392;-78
2022/09/05 00:03:50;;;;;;;6.50;4.13;;;;;;;14.62;48.62;100522.86;1708697;82;21542;-76
2022/09/05 00:06:17;;;;;;;6.28;3.85;;;;;;;14.63;48.47;100517.34;1700716;82;21206;-76
2022/09/05 00:08:59;;;;;;;7.35;3.92;;;;;;;14.66;48.27;100519.67;1707226;83;21850;-78
2022/09/05 00:11:37;;;;;;;6.08;4.03;;;;;;;14.68;48.19;100512.30;1677845;83;21065;-76
2022/09/05 00:14:28;;;;;;;5.45;4.05;;;;;;;14.72;48.04;100512.80;1698827;82;21068;-75
2022/09/05 00:17:27;;;;;;;6.40;4.28;;;;;;;14.72;47.90;100506.93;1698029;82;21074;-74
2022/09/05 00:19:59;;;;;;;6.20;4.20;;;;;;;14.74;47.89;100508.92;1696833;82;21117;-74
2022/09/05 00:22:31;;;;;;;5.95;4.10;;;;;;;14.77;47.83;100509.58;1689687;82;21196;-77
2022/09/05 00:25:52;;;;;;;6.78;4.30;;;;;;;14.81;47.78;100513.56;1710664;82;21030;-77
2022/09/05 00:28:30;;;;;;;8.30;4.33;;;;;;;14.78;47.74;100506.73;1704845;82;21054;-77
2022/09/05 00:31:24;;;;;;;4.83;4.20;;;;;;;14.85;47.64;100513.52;1706218;82;21063;-74
2022/09/05 00:34:16;;;;;;;5.33;3.70;;;;;;;14.84;47.65;100512.70;1721138;82;21582;-74
2022/09/05 00:36:46;;;;;;;7.75;3.77;;;;;;;14.84;47.62;100507.86;1710924;82;21113;-76
2022/09/05 00:39:31;;;;;;;5.60;4.10;;;;;;;14.83;47.60;100507.02;1656981;83;21107;-76
2022/09/05 00:42:02;;;;;;;6.55;4.35;;;;;;;14.81;47.74;100504.20;1657688;85;21064;-74
2022/09/05 00:44:31;;;;;;;9.03;4.12;;;;;;;14.79;47.83;100500.87;1700461;83;21562;-75
2022/09/05 00:47:06;;;;;;;7.10;4.05;;;;;;;14.74;47.88;100495.55;1697968;82;21041;-75
2022/09/05 00:49:38;;;;;;;6.33;3.87;;;;;;;14.71;47.96;100494.55;1708774;82;21151;-76
2022/09/05 00:52:25;;;;;;;6.72;4.97;;;;;;;14.66;48.01;100486.24;1707391;82;21034;-78
2022/09/05 00:55:14;;;;;;;5.22;3.92;;;;;;;14.64;48.08;100488.27;1704341;82;21025;-76
2022/09/05 00:58:16;;;;;;;7.80;4.00;;;;;;;14.61;48.09;100477.09;1711792;82;21152;-77
2022/09/05 01:00:57;;;;;;;5.55;4.15;;;;;;;14.58;48.16;100485.45;1703588;82;21051;-75
2022/09/05 01:04:12;;;;;;;5.20;3.85;;;;;;;14.55;48.14;100481.27;1712392;82;21166;-75
2022/09/05 01:07:02;;;;;;;6.65;4.37;;;;;;;14.53;48.07;100478.76;1679721;83;21634;-76
2022/09/05 01:09:52;;;;;;;6.72;3.72;;;;;;;14.51;47.95;100470.59;1712386;82;21033;-75
2022/09/05 01:12:48;;;;;;;4.78;4.03;;;;;;;14.51;47.99;100469.26;1682479;82;21062;-75
2022/09/05 01:15:21;;;;;;;6.22;4.10;;;;;;;14.48;47.97;100474.43;1682488;82;21041;-74
2022/09/05 01:18:27;;;;;;;5.62;4.30;;;;;;;14.46;47.95;100468.94;1686429;84;21204;-73
2022/09/05 01:21:30;;;;;;;7.35;4.42;;;;;;;14.47;47.95;100469.28;1649697;82;21164;-74
2022/09/05 01:24:18;;;;;;;4.78;3.87;;;;;;;14.45;47.92;100464.11;1675336;83;21018;-75
2022/09/05 01:27:05;;;;;;;6.45;4.12;;;;;;;14.44;47.94;100466.44;1645331;83;21041;-76
2022/09/05 01:29:48;;;;;;;5.95;4.40;;;;;;;14.42;47.98;100463.63;1648447;83;21518;-74
2022/09/05 01:32:38;;;;;;;9.30;5.17;;;;;;;14.39;47.95;100466.63;1696630;82;21218;-76
2022/09/05 01:35:48;;;;;;;8.08;4.58;;;;;;;14.38;48.03;100468.48;1695591;82;21470;-75
2022/09/05 01:38:46;;;;;;;4.97;4.03;;;;;;;14.37;48.11;100473.52;1659357;85;21560;-74
2022/09/05 01:41:33;;;;;;;6.35;4.10;;;;;;;14.35;48.09;100467.48;1715409;82;21169;-74
2022/09/05 01:44:32;;;;;;;6.42;4.72;;;;;;;14.36;48.19;100475.33;1681741;83;21089;-74
2022/09/05 01:47:19;;;;;;;7.67;4.60;;;;;;;14.38;48.10;100467.66;1703903;82;21247;-74
2022/09/05 01:50:00;;;;;;;8.23;4.62;;;;;;;14.37;48.28;100468.17;1680608;83;21341;-74
2022/09/05 01:52:56;;;;;;;8.40;4.70;;;;;;;14.35;48.38;100462.99;1708626;82;21042;-76
2022/09/05 01:55:54;;;;;;;7.90;4.53;;;;;;;14.35;48.29;100464.33;1672812;83;21037;-75
2022/09/05 01:58:35;;;;;;;6.60;5.08;;;;;;;14.35;48.37;100462.99;1692332;83;21059;-75
2022/09/05 02:01:25;;;;;;;5.95;4.28;;;;;;;14.33;48.45;100470.84;1697477;82;21111;-73
2022/09/05 02:04:26;;;;;;;7.17;4.75;;;;;;;14.33;48.53;100458.33;1704600;83;21037;-75
2022/09/05 02:07:36;;;;;;;8.15;5.17;;;;;;;14.33;48.61;100470.84;1650691;84;21564;-76
2022/09/05 02:10:52;;;;;;;7.62;5.35;;;;;;;14.29;48.70;100457.02;1683722;83;21082;-75
2022/09/05 02:13:57;;;;;;;9.28;5.75;;;;;;;14.26;48.91;100461.88;1710776;82;21045;-74
2022/09/05 02:16:43;;;;;;;8.35;5.40;;;;;;;14.21;49.05;100453.53;1691864;82;21246;-75
2022/09/05 02:19:27;;;;;;;7.10;4.80;;;;;;;14.15;49.27;100449.20;1699619;82;21018;-75
2022/09/05 02:22:10;;;;;;;8.13;5.55;;;;;;;14.11;49.39;100449.74;1687316;83;21026;-74
2022/09/05 02:24:42;;;;;;;;;;;;;;;14.09;49.54;100447.75;1710468;82;21135;-76
2022/09/05 02:27:35;;;;;;;9.83;5.62;;;;;;;14.06;49.58;100453.42;1678368;84;20205;-75
2022/09/05 02:30:18;;;;;;;9.08;6.10;;;;;;;14.04;49.64;100448.77;1704016;82;21090;-75
2022/09/05 02:33:27;;;;;;;10.32;6.40;;;;;;;14.04;49.61;100447.42;1691291;83;21049;-74
2022/09/05 02:36:24;;;;;;;7.92;5.95;;;;;;;14.06;49.65;100446.75;1703829;82;21066;-75
2022/09/05 02:39:25;;;;;;;9.28;5.90;;;;;;;14.06;49.74;100452.95;1658650;84;21056;-76
2022/09/05 02:42:03;;;;;;;8.60;6.50;;;;;;;14.04;49.83;100442.08;1681057;83;21109;-76
2022/09/05 02:44:52;;;;;;;9.38;6.53;;;;;;;14.04;49.91;100442.94;1713254;82;21475;-75
2022/09/05 02:47:25;;;;;;;9.58;6.00;;;;;;;14.05;49.98;100442.42;1677555;83;21116;-75
2022/09/05 02:50:20;;;;;;;11.20;7.03;;;;;;;14.05;50.12;100449.11;1669446;84;21118;-76
2022/09/05 02:52:46;;;;;;;11.28;6.90;;;;;;;14.04;50.21;100448.77;1662227;83;21093;-77
2022/09/05 02:55:35;;;;;;;11.53;7.42;;;;;;;14.03;50.35;100443.93;1692860;82;21076;-78
2022/09/05 02:58:13;;;;;;;12.40;6.62;;;;;;;14.03;50.44;100447.11;1710182;82;21196;-77
2022/09/05 03:01:13;;;;;;;11.03;7.20;;;;;;;14.01;50.63;100447.28;1689014;83;21030;-76
2022/09/05 03:03:51;;;;;;;11.15;7.50;;;;;;;14.00;50.73;100451.45;1683031;83;21033;-76
2022/09/05 03:06:23;;;;;;;10.43;7.15;;;;;;;13.99;50.93;100446.63;1696692;82;21156;-76
2022/09/05 03:09:14;;;;;;;8.53;6.67;;;;;;;13.98;51.08;100454.80;1673037;85;21057;-78
2022/09/05 03:12:05;;;;;;;8.25;6.35;;;;;;;13.94;51.21;100448.45;1713096;82;21251;-76
2022/09/05 03:15:17;;;;;;;11.68;7.25;;;;;;;13.90;51.56;100447.65;1674926;83;21121;-77
2022/09/05 03:18:29;;;;;;;11.18;7.12;;;;;;;13.85;51.70;100442.84;1677829;83;21070;-76
2022/09/05 03:21:02;;;;;;;11.08;7.35;;;;;;;13.81;51.88;100444.67;1712820;81;21007;-74
2022/09/05 03:23:52;;;;;;;10.48;7.20;;;;;;;13.77;52.06;100448.19;1678977;83;21038;-73
2022/09/05 03:26:49;;;;;;;13.38;8.13;;;;;;;13.76;52.33;100450.54;1713423;82;21187;-74
2022/09/05 03:29:37;;;;;;;14.18;8.40;;;;;;;13.75;52.47;100445.70;1703426;82;21038;-77
2022/09/05 03:32:40;;;;;;;14.78;8.53;;;;;;;13.74;52.64;100452.55;1694516;82;21315;-77
2022/09/05 03:35:56;;;;;;;13.05;7.80;;;;;;;13.72;52.75;100451.38;1698886;82;21027;-76
2022/09/05 03:39:05;;;;;;;12.40;8.30;;;;;;;13.70;52.96;100453.90;1704342;82;21050;-77
2022/09/05 03:42:02;;;;;;;10.45;7.28;;;;;;;13.67;53.20;100451.05;1653053;84;21565;-76
2022/09/05 03:44:45;;;;;;;11.08;7.95;;;;;;;13.65;53.46;100454.39;1710980;82;21042;-75
2022/09/05 03:47:23;;;;;;;12.40;8.68;;;;;;;13.64;53.51;100452.74;1663741;83;21116;-75
2022/09/05 03:50:22;;;;;;;10.98;7.30;;;;;;;13.64;53.71;100458.08;1676980;83;21137;-76
2022/09/05 03:53:21;;;;;;;14.78;7.92;;;;;;;13.63;53.74;100456.41;1695594;83;21049;-76
2022/09/05 03:56:28;;;;;;;12.73;7.60;;;;;;;13.63;54.00;100451.58;1692000;83;21101;-77
2022/09/05 03:59:34;;;;;;;15.65;7.78;;;;;;;13.63;54.01;100456.91;1701451;82;21111;-77
2022/09/05 04:02:06;;;;;;;10.70;7.85;;;;;;;13.65;54.08;100452.23;1699071;83;21022;-77
2022/09/05 04:04:45;;;;;;;10.75;7.55;;;;;;;13.67;54.18;100452.38;1707299;82;21525;-76
2022/09/05 04:07:25;;;;;;;13.75;8.05;;;;;;;13.70;54.26;100455.23;1694515;82;21057;-78
2022/09/05 04:10:03;;;;;;;9.58;7.10;;;;;;;13.71;54.34;100451.55;1710882;82;21148;-76
2022/09/05 04:12:47;;;;;;;8.63;7.30;;;;;;;13.74;54.33;100447.21;1702726;82;21065;-76
2022/09/05 04:15:43;;;;;;;10.55;7.17;;;;;;;13.75;54.38;100447.52;1703238;82;21546;-75
2022/09/05 04:18:21;;;;;;;11.83;7.95;;;;;;;13.77;54.48;100449.52;1709729;82;21030;-76
2022/09/05 04:21:05;;;;;;;12.45;7.62;;;;;;;13.79;54.57;100457.36;1701383;82;21090;-77
2022/09/05 04:23:49;;;;;;;12.13;7.85;;;;;;;13.80;54.60;100447.85;1678115;84;21152;-73
2022/09/05 04:26:23;;;;;;;12.93;7.42;;;;;;;13.81;54.61;100457.55;1681199;83;21014;-76
2022/09/05 04:29:13;;;;;;;11.90;8.23;;;;;;;13.82;54.75;100451.18;1711808;83;21019;-76
2022/09/05 04:32:07;;;;;;;11.48;7.80;;;;;;;13.81;54.93;100452.20;1667761;83;21151;-75
2022/09/05 04:35:21;;;;;;;11.50;8.10;;;;;;;13.80;55.01;100449.70;1691523;82;21528;-74
2022/09/05 04:38:12;;;;;;;11.40;7.50;;;;;;;13.81;55.08;100447.34;1692956;82;21238;-77
2022/09/05 04:40:54;;;;;;;12.20;7.65;;;;;;;13.81;55.14;100444.67;1707039;83;21587;-76
2022/09/05 04:43:34;;;;;;;11.33;7.37;;;;;;;13.80;55.26;100444.36;1677472;83;21033;-75
2022/09/05 04:46:22;;;;;;;12.85;7.95;;;;;;;13.79;55.42;100446.69;1709556;82;21098;-76
2022/09/05 04:49:08;;;;;;;12.75;7.83;;;;;;;13.81;55.62;100445.52;1698000;82;21026;-75
2022/09/05 04:52:17;;;;;;;13.05;8.13;;;;;;;13.82;55.61;100445.02;1661745;85;21688;-73
2022/09/05 04:54:58;;;;;;;14.20;8.30;;;;;;;13.85;55.68;100450.85;1708601;82;21050;-74
2022/09/05 04:57:37;;;;;;;9.93;7.80;;;;;;;13.87;55.68;100455.52;1685707;83;21072;-76
2022/09/05 05:00:07;;;;;;;12.45;8.90;;;;;;;13.90;55.71;100451.66;1681108;83;21118;-75
2022/09/05 05:02:43;;;;;;;12.50;7.33;;;;;;;13.93;55.75;100449.98;1674484;83;21547;-77
2022/09/05 05:05:23;;;;;;;10.13;7.40;;;;;;;13.96;55.74;100454.48;1713823;82;21491;-74
2022/09/05 05:08:01;;;;;;;12.93;8.50;;;;;;;14.02;55.80;100456.94;1712584;82;21058;-74
2022/09/05 05:10:42;;;;;;;13.10;7.42;;;;;;;14.09;55.75;100457.92;1687258;83;21086;-76
2022/09/05 05:13:44;;;;;;;16.93;8.60;;;;;;;14.19;55.78;100460.39;1694666;82;21025;-76
2022/09/05 05:16:27;;;;;;;12.45;8.45;;;;;;;14.30;55.75;100457.33;1708783;83;21026;-76
2022/09/05 05:18:59;;;;;;;12.80;7.80;;;;;;;14.44;55.78;100469.62;1676792;83;21097;-75
2022/09/05 05:21:28;;;;;;;12.60;8.57;;;;;;;14.54;55.57;100464.40;1715532;82;21065;-74
2022/09/05 05:24:15;;;;;;;16.15;8.73;;;;;;;14.63;55.28;100465.19;1686302;83;21085;-75
2022/09/05 05:27:11;;;;;;;10.93;8.10;;;;;;;14.67;55.53;100463.83;1702607;83;21097;-75
2022/09/05 05:30:05;;;;;;;10.75;7.90;;;;;;;14.72;55.34;100457.45;1663679;84;21560;-74
2022/09/05 05:32:47;;;;;;;13.05;8.63;;;;;;;14.76;55.40;100452.59;1642593;84;21121;-76
2022/09/05 05:35:30;;;;;;;12.73;8.60;;;;;;;14.81;55.69;100459.55;1711122;82;21070;-76
2022/09/05 05:38:14;;;;;;;14.25;9.18;;;;;;;14.87;55.76;100462.88;1659091;85;21045;-76
2022/09/05 05:40:51;;;;;;;13.58;9.53;;;;;;;14.91;55.48;100457.48;1664901;83;21069;-77
2022/09/05 05:43:29;;;;;;;13.35;9.38;;;;;;;14.97;55.29;100467.13;1685052;83;21042;-77
2022/09/05 05:46:00;;;;;;;14.83;9.30;;;;;;;14.97;55.29;100468.47;1700817;82;21093;-76
2022/09/05 05:48:37;;;;;;;13.10;9.63;;;;;;;15.01;55.32;100461.26;1696382;82;21066;-75
2022/09/05 05:51:41;;;;;;;20.90;10.15;;;;;;;15.06;55.24;100472.23;1695417;82;21178;-76
2022/09/05 05:54:26;;;;;;;;;;;;;;;15.08;55.14;100466.70;1712165;81;21078;-77
2022/09/05 05:57:33;;;;;;;17.17;10.58;;;;;;;15.07;54.97;100463.72;1641663;85;20226;-76
2022/09/05 06:00:09;;;;;;;16.80;10.53;;;;;;;15.03;55.28;100461.08;1702069;82;21152;-78
2022/09/05 06:03:37;;;;;;;16.70;10.55;;;;;;;15.02;55.29;100460.74;1714508;82;21081;-79
2022/09/05 06:06:23;;;;;;;17.42;10.20;;;;;;;15.06;55.36;100462.86;1693095;82;21046;-81
2022/09/05 06:09:33;;;;;;;16.52;10.82;;;;;;;15.18;55.39;100461.10;1654522;82;21573;-78
2022/09/05 06:12:40;;;;;;;22.73;12.25;;;;;;;15.30;55.30;100468.53;1711494;82;21549;-79
2022/09/05 06:15:52;;;;;;;21.27;11.48;;;;;;;15.45;55.08;100462.36;1701803;82;21656;-75
2022/09/05 06:18:36;;;;;;;22.55;14.23;;;;;;;15.55;55.07;100461.61;1689822;83;21029;-75
2022/09/05 06:21:34;;;;;;;30.30;20.37;;;;;;;15.65;55.06;100463.50;1703800;82;21022;-75
2022/09/05 06:24:12;;;;;;;39.33;25.32;;;;;;;15.75;54.94;100459.24;1707117;83;21590;-75
2022/09/05 06:27:00;;;;;;;65.20;43.78;;;;;;;15.85;54.96;100463.81;1698683;82;21020;-75
2022/09/05 06:29:45;;;;;;;74.58;49.20;;;;;;;15.97;54.92;100472.20;1703135;82;21597;-79
2022/09/05 06:32:32;;;;;;;104.15;74.65;;;;;;;16.14;55.04;100480.89;1711901;83;21014;-74
2022/09/05 06:35:22;;;;;;;92.12;65.55;;;;;;;16.35;54.69;100496.22;1708314;82;21002;-77
2022/09/05 06:38:22;;;;;;;91.17;64.53;;;;;;;16.48;54.30;100506.28;1702393;82;21042;-76
2022/09/05 06:41:20;;;;;;;149.70;109.95;;;;;;;16.55;54.20;100515.22;1709765;81;21026;-73
2022/09/05 06:44:04;;;;;;;305.48;223.47;;;;;;;16.53;54.84;100519.94;1705152;82;21151;-76
2022/09/05 06:46:35;;;;;;;330.15;243.95;;;;;;;16.47;55.67;100539.47;1681175;81;21054;-75
2022/09/05 06:49:41;;;;;;;318.15;230.77;;;;;;;16.35;56.46;100537.77;1705713;82;21118;-74
2022/09/05 06:52:46;;;;;;;288.32;208.90;;;;;;;16.24;57.00;100546.28;1696707;82;21031;-75
2022/09/05 06:56:01;;;;;;;234.80;170.57;;;;;;;16.07;57.93;100535.77;1715667;82;21010;-75
2022/09/05 06:59:06;;;;;;;220.67;157.00;;;;;;;15.92;59.54;100529.56;1709743;82;21309;-73
2022/09/05 07:01:38;;;;;;;186.15;134.47;;;;;;;15.72;59.93;100520.69;1698726;82;21061;-77
2022/09/05 07:04:16;;;;;;;183.40;128.45;;;;;;;15.52;61.46;100523.03;1707518;82;21505;-79
2022/09/05 07:07:00;;;;;;;166.95;120.65;;;;;;;15.41;62.41;100519.97;1707652;82;21034;-75
2022/09/05 07:09:45;;;;;;;155.30;116.30;;;;;;;15.29;62.93;100503.50;1701455;82;21102;-74
2022/09/05 07:12:28;;;;;;;159.75;120.10;;;;;;;15.19;64.10;100512.30;1708148;82;21845;-74
2022/09/05 07:15:29;;;;;;;163.57;116.53;;;;;;;15.13;64.12;100513.84;1709594;82;21086;-74
2022/09/05 07:18:25;;;;;;;156.75;111.22;;;;;;;15.05;64.13;100522.77;1694356;83;21066;-73
2022/09/05 07:21:00;;;;;;;160.28;112.60;;;;;;;14.99;64.20;100526.64;1712139;83;21046;-74
2022/09/05 07:23:51;;;;;;;139.97;100.30;;;;;;;14.94;64.71;100590.05;1680545;83;21136;-74
2022/09/05 07:26:18;;;;;;;131.45;95.83;;;;;;;14.88;64.66;100582.73;1702529;82;21155;-75
2022/09/05 07:28:47;;;;;;;133.67;94.28;;;;;;;14.76;66.02;100593.00;1710697;82;21527;-74
2022/09/05 07:31:17;;;;;;;128.45;93.27;;;;;;;14.62;65.84;100607.95;1704328;82;21033;-74
2022/09/05 07:33:45;;;;;;;118.65;85.62;;;;;;;14.53;66.31;100611.11;1680446;83;21036;-77
2022/09/05 07:36:18;;;;;;;109.27;77.92;;;;;;;14.47;66.28;100607.79;1706527;82;21074;-76
2022/09/05 07:38:49;;;;;;;107.58;77.47;;;;;;;14.44;66.44;100610.80;1707239;83;21612;-74
2022/09/05 07:41:31;;;;;;;103.58;70.37;;;;;;;14.46;66.81;100618.14;1711112;83;21019;-76
2022/09/05 07:44:32;;;;;;;103.22;68.85;;;;;;;14.47;67.96;100601.62;1692827;82;21062;-76
2022/09/05 07:47:10;;;;;;;95.30;67.42;;;;;;;14.48;68.73;100603.27;1705297;82;21074;-78
2022/09/05 07:49:41;;;;;;;84.65;64.30;;;;;;;14.35;69.74;100599.79;1696849;83;21101;-78
2022/09/05 07:52:18;;;;;;;86.95;63.50;;;;;;;14.26;70.99;100584.81;1686870;83;22149;-78
2022/09/05 07:54:45;;;;;;;72.67;54.70;;;;;;;14.21;71.99;100572.45;1705244;82;21490;-72
2022/09/05 07:57:25;;;;;;;67.82;46.37;;;;;;;14.10;73.32;100565.63;1707383;82;21174;-73
2022/09/05 07:59:55;;;;;;;67.92;44.53;;;;;;;13.99;74.15;100563.34;1707112;82;21117;-74
2022/09/05 08:02:22;;;;;;;63.13;42.20;;;;;;;13.92;74.36;100554.64;1711198;82;21562;-76
2022/09/05 08:04:49;;;;;;;60.48;43.40;;;;;;;13.92;74.69;100548.47;1708965;83;21900;-76
2022/09/05 08:07:34;;;;;;;60.83;43.05;;;;;;;13.90;75.25;100545.14;1703973;82;21050;-77
2022/09/05 08:10:11;;;;;;;56.53;40.73;;;;;;;13.90;76.12;100538.47;1709726;82;21042;-76
2022/09/05 08:12:44;;;;;;;51.77;37.00;;;;;;;13.94;76.42;100534.45;1709356;82;21030;-77
2022/09/05 08:15:18;;;;;;;52.25;36.40;;;;;;;14.05;75.50;100526.07;1708720;82;21105;-75
2022/09/05 08:18:13;;;;;;;51.25;35.90;;;;;;;14.00;74.48;100496.87;1705286;82;21414;-77
2022/09/05 08:21:09;;;;;;;49.75;36.53;;;;;;;14.15;74.50;100532.04;1705040;82;21700;-77
2022/09/05 08:23:50;;;;;;;51.92;37.23;;;;;;;14.13;75.18;100531.38;1705692;82;21554;-79
2022/09/05 08:26:45;;;;;;;46.90;34.40;;;;;;;14.19;74.63;100531.70;1701746;82;21093;-81
2022/09/05 08:29:37;;;;;;;53.87;35.05;;;;;;;14.34;76.62;100534.81;1703804;82;21074;-77
2022/09/05 08:32:19;;;;;;;46.02;32.85;;;;;;;14.33;77.08;100538.99;1720476;82;21089;-80
2022/09/05 08:34:50;;;;;;;45.38;33.25;;;;;;;14.07;77.17;100540.09;1696760;82;21117;-78
2022/09/05 08:37:20;;;;;;;44.58;33.48;;;;;;;13.90;79.14;100545.97;1710837;82;21042;-79
2022/09/05 08:39:52;;;;;;;44.42;32.28;;;;;;;13.92;80.19;100540.46;1707892;82;21042;-80
2022/09/05 08:43:19;;;;;;;46.30;33.23;;;;;;;13.94;79.39;100539.27;1706846;82;21586;-81
2022/09/05 08:46:09;;;;;;;42.50;30.02;;;;;;;13.93;79.51;100539.47;1703685;82;21545;-77
2022/09/05 08:49:09;;;;;;;34.45;25.80;;;;;;;14.10;79.83;100542.91;1710293;82;21027;-84
2022/09/05 08:51:54;;;;;;;30.30;21.07;;;;;;;14.40;79.56;100542.64;1704386;82;21086;-76
2022/09/05 08:54:42;;;;;;;26.10;18.55;;;;;;;14.95;81.38;100535.55;1707481;82;21025;-76
2022/09/05 08:58:17;;;;;;;24.57;18.92;;;;;;;15.57;77.45;100521.66;1824615;76;27957;-76
2022/09/05 09:01:11;;;;;;;21.42;18.45;;;;;;;15.86;76.97;100523.61;1800574;78;20980;-75
2022/09/05 09:03:58;;;;;;;24.95;13.70;;;;;;;16.35;78.62;100520.86;1822074;78;21133;-80
2022/09/05 09:06:36;;;;;;;16.90;11.93;;;;;;;17.03;76.64;100518.24;1812939;77;21444;-78
2022/09/05 09:09:08;;;;;;;13.20;11.30;;;;;;;17.79;73.99;100512.28;1789733;77;22104;-76
2022/09/05 09:11:50;;;;;;;14.05;9.48;;;;;;;18.55;71.14;100514.13;1812218;77;21073;-73
2022/09/05 09:14:36;;;;;;;10.63;8.03;;;;;;;19.12;67.11;100512.00;1748312;81;21022;-82
2022/09/05 09:17:39;;;;;;;16.45;10.63;;;;;;;19.75;62.54;100508.92;1768409;79;20984;-77
2022/09/05 09:20:36;;;;;;;19.60;13.78;;;;;;;20.44;61.33;100510.70;1806087;77;21075;-79
2022/09/05 09:23:07;;;;;;;17.10;14.85;;;;;;;21.08;58.88;100508.09;1749679;79;21047;-74
2022/09/05 09:25:54;;;;;;;16.35;14.65;;;;;;;21.64;55.88;100508.59;1811091;77;21077;-76
2022/09/05 09:28:50;;;;;;;17.30;15.48;;;;;;;22.12;57.01;100497.06;1803741;77;21013;-76
2022/09/05 09:31:51;;;;;;;18.55;14.90;;;;;;;22.55;55.02;100501.55;1806151;78;21659;-77
2022/09/05 09:34:31;;;;;;;14.85;12.63;;;;;;;22.90;53.86;100503.55;1810330;77;21078;-76
2022/09/05 09:37:30;;;;;;;14.70;13.15;;;;;;;23.08;53.10;100492.38;1770953;79;21303;-78
2022/09/05 09:40:11;;;;;;;18.02;12.93;;;;;;;23.30;53.23;100488.06;1757896;79;21089;-79
2022/09/05 09:43:26;;;;;;;15.10;11.05;;;;;;;23.45;51.71;100490.83;1757630;79;21103;-78
2022/09/05 09:46:02;;;;;;;15.88;12.55;;;;;;;23.60;51.29;100476.27;1759150;79;21240;-79
2022/09/05 09:49:02;;;;;;;14.65;11.05;;;;;;;23.79;50.79;100472.12;1794897;78;21032;-77
2022/09/05 09:52:26;;;;;;;11.30;10.18;;;;;;;24.05;50.58;100467.54;1804250;77;21458;-80
2022/09/05 09:55:38;;;;;;;10.82;9.58;;;;;;;24.42;50.06;100460.94;1799583;79;21064;-78
2022/09/05 09:58:35;;;;;;;10.45;7.58;;;;;;;25.05;48.08;100449.56;1797919;78;21001;-78
2022/09/05 10:01:12;;;;;;;9.83;7.85;;;;;;;25.66;46.78;100445.62;1787172;78;21093;-78
2022/09/05 10:03:48;;;;;;;10.45;8.13;;;;;;;26.02;44.21;100437.42;1791423;79;21053;-74
2022/09/05 10:06:42;;;;;;;8.93;8.03;;;;;;;26.33;44.43;100439.65;1764553;80;21072;-78
2022/09/05 10:09:36;;;;;;;10.43;8.20;;;;;;;26.79;42.93;100443.70;1791549;78;21174;-75
2022/09/05 10:12:23;;;;;;;12.18;8.40;;;;;;;26.95;42.42;100437.84;1783282;78;21537;-80
2022/09/05 10:15:02;;;;;;;9.65;8.68;;;;;;;26.90;43.12;100445.15;1791769;78;21710;-78
2022/09/05 10:17:46;;;;;;;9.30;8.05;;;;;;;26.65;42.49;100441.92;1797292;78;21065;-75
2022/09/05 10:20:36;;;;;;;12.50;7.33;;;;;;;26.36;42.32;100445.96;1789008;78;21022;-78
2022/09/05 10:23:14;;;;;;;7.85;7.03;;;;;;;26.03;40.68;100454.02;1765087;80;21101;-77
2022/09/05 10:26:07;;;;;;;10.65;7.25;;;;;;;25.35;40.68;100456.06;1757365;80;21560;-80
2022/09/05 10:29:10;;;;;;;13.50;7.33;;;;;;;24.47;40.51;100470.52;1791633;78;21257;-76
2022/09/05 10:32:12;;;;;;;10.43;7.60;;;;;;;23.40;41.82;100474.47;1792251;78;21089;-78
2022/09/05 10:35:02;;;;;;;10.63;6.75;;;;;;;22.58;43.87;100471.31;1759843;80;21021;-76
2022/09/05 10:37:42;;;;;;;7.75;5.58;;;;;;;22.43;44.86;100478.20;1784640;79;21017;-80
2022/09/05 10:40:13;;;;;;;8.88;5.87;;;;;;;22.46;43.85;100475.84;1735078;79;21049;-79
2022/09/05 10:42:52;;;;;;;9.58;5.62;;;;;;;22.31;43.83;100477.61;1726293;80;21196;-79
2022/09/05 10:45:47;;;;;;;6.50;5.22;;;;;;;22.13;43.91;100470.82;1801175;78;21119;-78
2022/09/05 10:48:31;;;;;;;8.30;5.33;;;;;;;21.87;43.85;100466.56;1802802;78;21052;-79
2022/09/05 10:51:15;;;;;;;7.97;5.95;;;;;;;21.48;44.42;100459.13;1770122;79;21498;-81
2022/09/05 10:54:21;;;;;;;8.58;5.42;;;;;;;21.65;45.25;100455.33;1786090;78;21057;-80
2022/09/05 10:56:51;;;;;;;9.75;6.10;;;;;;;21.98;44.79;100453.61;1778391;78;21526;-77
2022/09/05 10:59:59;;;;;;;6.97;5.55;;;;;;;22.76;44.55;100450.11;1798330;79;20971;-79
2022/09/05 11:02:30;;;;;;;8.25;5.55;;;;;;;23.30;43.91;100441.98;1805873;78;21006;-83
2022/09/05 11:05:16;;;;;;;8.37;5.17;;;;;;;23.65;42.40;100441.68;1800891;78;21027;-80
2022/09/05 11:08:11;;;;;;;5.60;4.80;;;;;;;23.62;41.29;100442.96;1789458;79;21056;-80
2022/09/05 11:11:21;;;;;;;8.00;5.50;;;;;;;23.47;41.62;100438.55;1790911;79;21503;-82
2022/09/05 11:13:50;;;;;;;8.88;6.00;;;;;;;23.20;41.51;100449.03;1793728;79;21473;-76
2022/09/05 11:16:39;;;;;;;6.80;5.30;;;;;;;22.74;42.21;100445.99;1794402;79;21014;-76
2022/09/05 11:19:24;;;;;;;6.85;5.15;;;;;;;22.37;42.39;100446.10;1790027;79;21522;-82
2022/09/05 11:22:04;;;;;;;9.63;5.17;;;;;;;21.92;43.04;100445.90;1710288;80;21085;-82
2022/09/05 11:24:39;;;;;;;4.37;3.87;;;;;;;21.68;44.04;100447.61;1804744;78;21119;-83
2022/09/05 11:27:10;;;;;;;5.28;4.00;;;;;;;21.65;44.20;100441.28;1793075;78;21057;-80
2022/09/05 11:29:47;;;;;;;5.35;3.83;;;;;;;22.13;44.51;100439.17;1823695;77;21552;-81
2022/09/05 11:32:35;;;;;;;5.95;3.87;;;;;;;22.96;43.96;100431.36;1819126;77;20994;-80
2022/09/05 11:35:27;;;;;;;5.25;3.52;;;;;;;23.98;42.86;100424.77;1798405;77;21012;-82
2022/09/05 11:38:13;;;;;;;3.00;2.70;;;;;;;25.18;41.62;100420.69;1814005;77;21842;-80
2022/09/05 11:40:52;;;;;;;3.05;2.60;;;;;;;26.45;38.75;100416.64;1818237;77;21037;-82
2022/09/05 11:44:00;;;;;;;3.47;3.17;;;;;;;27.48;36.83;100409.31;1819797;77;21053;-80
2022/09/05 11:46:32;;;;;;;3.80;2.80;;;;;;;28.39;35.77;100405.85;1811412;77;21544;-81
2022/09/05 11:49:52;;;;;;;5.35;2.98;;;;;;;29.25;34.26;100400.73;1762180;80;26518;-81
2022/09/05 11:52:39;;;;;;;4.08;2.87;;;;;;;29.70;33.03;100398.38;1799929;78;21722;-81
2022/09/05 11:55:53;;;;;;;3.35;3.05;;;;;;;30.27;32.83;100398.96;1796641;78;21075;-82
2022/09/05 11:58:58;;;;;;;3.40;3.00;;;;;;;30.97;31.58;100397.93;1795477;78;21034;-80
2022/09/05 12:01:31;;;;;;;4.83;3.42;;;;;;;31.20;30.98;100399.08;1787254;79;20971;-82
2022/09/05 12:04:38;;;;;;;3.27;2.98;;;;;;;31.17;30.97;100392.79;1758833;79;21045;-83
2022/09/05 12:07:33;;;;;;;4.08;3.33;;;;;;;31.35;30.43;100389.31;1793875;79;21952;-78
2022/09/05 12:10:30;;;;;;;4.75;3.50;;;;;;;31.57;29.80;100396.80;1789125;79;21474;-78
2022/09/05 12:13:45;;;;;;;3.83;3.33;;;;;;;31.60;29.59;100392.07;1756128;80;21013;-81
2022/09/05 12:16:32;;;;;;;3.80;3.50;;;;;;;31.92;29.59;100390.83;1785821;78;21057;-82
2022/09/05 12:19:10;;;;;;;5.05;4.00;;;;;;;32.44;29.15;100386.01;1759649;80;21101;-81
2022/09/05 12:22:09;;;;;;;6.60;3.10;;;;;;;32.52;28.87;100383.95;1766720;79;22384;-81
2022/09/05 12:25:14;;;;;;;2.80;2.60;;;;;;;32.18;28.76;100386.41;1776838;78;21049;-82
2022/09/05 12:27:44;;;;;;;3.95;3.05;;;;;;;31.47;28.87;100382.63;1792071;79;21556;-77
2022/09/05 12:30:14;;;;;;;3.90;3.40;;;;;;;30.27;29.41;100381.15;1779528;79;21034;-78
2022/09/05 12:33:02;;;;;;;6.62;3.80;;;;;;;29.24;29.89;100388.94;1785318;80;21022;-78
2022/09/05 12:35:37;;;;;;;5.90;4.20;;;;;;;28.26;30.70;100394.92;1770501;78;21034;-78
2022/09/05 12:38:25;;;;;;;5.78;4.33;;;;;;;27.47;31.44;100389.95;1777909;78;21123;-80
2022/09/05 12:41:09;;;;;;;6.28;5.67;;;;;;;27.28;31.82;100395.02;1799365;78;21112;-80
2022/09/05 12:43:42;;;;;;;5.67;4.80;;;;;;;27.67;31.72;100385.13;1823427;78;21069;-80
2022/09/05 12:46:26;;;;;;;5.60;5.10;;;;;;;28.37;31.37;100371.96;1809983;78;21031;-80
2022/09/05 12:49:10;;;;;;;6.70;5.67;;;;;;;28.93;30.49;100373.10;1777168;78;21587;-84
2022/09/05 12:51:42;;;;;;;6.03;5.05;;;;;;;29.59;30.08;100366.67;1796335;78;21490;-83